createdAt,value
2018-07-03T00:01:14.867Z,18.80
2018-07-03T00:03:43.176Z,18.70
2018-07-03T00:06:11.540Z,18.60
2018-07-03T00:08:40.001Z,18.50
2018-07-03T00:11:08.397Z,18.40
2018-07-03T00:13:37.028Z,18.30
2018-07-03T00:16:05.548Z,18.30
2018-07-03T00:18:34.056Z,18.20
2018-07-03T00:21:02.580Z,18.10
2018-07-03T00:23:31.592Z,18.10
2018-07-03T00:26:00.027Z,18.00
2018-07-03T00:28:28.446Z,18.00
2018-07-03T00:30:56.925Z,17.90
2018-07-03T00:33:25.538Z,17.90
2018-07-03T00:35:54.702Z,17.80
2018-07-03T00:38:23.124Z,17.80
2018-07-03T00:40:51.556Z,17.70
2018-07-03T00:43:20.046Z,17.60
2018-07-03T00:45:48.836Z,17.50
2018-07-03T00:48:17.251Z,17.50
2018-07-03T00:50:45.760Z,17.50
2018-07-03T00:53:14.320Z,17.40
2018-07-03T00:55:42.809Z,17.30
2018-07-03T00:58:11.202Z,17.30
2018-07-03T01:00:39.749Z,17.10
2018-07-03T01:03:08.334Z,17.00
2018-07-03T01:05:36.837Z,17.00
2018-07-03T01:08:05.357Z,17.00
2018-07-03T01:10:33.828Z,17.00
2018-07-03T01:13:02.395Z,16.90
2018-07-03T01:15:30.891Z,16.90
2018-07-03T01:17:59.416Z,16.90
2018-07-03T01:20:27.797Z,16.90
2018-07-03T01:22:56.344Z,16.90
2018-07-03T01:25:24.779Z,16.80
2018-07-03T01:27:53.280Z,16.70
2018-07-03T01:30:21.705Z,16.60
2018-07-03T01:32:50.160Z,16.60
2018-07-03T01:35:18.588Z,16.60
2018-07-03T01:37:46.986Z,16.60
2018-07-03T01:40:15.289Z,16.50
2018-07-03T01:42:43.704Z,16.40
2018-07-03T01:45:12.192Z,16.40
2018-07-03T01:47:40.613Z,16.30
2018-07-03T01:50:09.072Z,16.20
2018-07-03T01:52:37.505Z,16.20
2018-07-03T01:55:06.992Z,16.20
2018-07-03T01:57:35.501Z,16.20
2018-07-03T02:00:05.032Z,16.00
2018-07-03T02:02:33.437Z,15.90
2018-07-03T02:05:02.390Z,15.90
2018-07-03T02:07:30.776Z,15.90
2018-07-03T02:09:59.352Z,15.80
2018-07-03T02:12:27.765Z,15.80
2018-07-03T02:14:56.300Z,15.80
2018-07-03T02:17:24.741Z,15.80
2018-07-03T02:19:53.329Z,15.60
2018-07-03T02:22:21.744Z,15.60
2018-07-03T02:24:50.187Z,15.50
2018-07-03T02:27:18.708Z,15.50
2018-07-03T02:29:47.168Z,15.40
2018-07-03T02:32:15.748Z,15.30
2018-07-03T02:34:44.181Z,15.30
2018-07-03T02:37:12.639Z,15.20
2018-07-03T02:39:41.020Z,15.20
2018-07-03T02:42:09.477Z,15.10
2018-07-03T02:44:37.897Z,15.10
2018-07-03T02:47:06.484Z,15.10
2018-07-03T02:49:34.936Z,15.10
2018-07-03T02:52:03.415Z,15.00
2018-07-03T02:54:31.877Z,14.90
2018-07-03T02:57:00.322Z,14.80
2018-07-03T02:59:28.757Z,14.80
2018-07-03T03:01:57.372Z,14.70
2018-07-03T03:04:25.817Z,14.70
2018-07-03T03:06:54.281Z,14.70
2018-07-03T03:09:24.857Z,14.70
2018-07-03T03:11:53.408Z,14.60
2018-07-03T03:14:22.288Z,14.60
2018-07-03T03:16:50.685Z,14.50
2018-07-03T03:19:19.169Z,14.50
2018-07-03T03:21:47.877Z,14.50
2018-07-03T03:24:16.482Z,14.40
2018-07-03T03:26:45.105Z,14.40
2018-07-03T03:29:13.736Z,14.40
2018-07-03T03:31:42.253Z,14.40
2018-07-03T03:39:07.272Z,14.40
2018-07-03T03:41:35.676Z,14.40
2018-07-03T03:46:32.056Z,14.40
2018-07-03T03:49:00.508Z,14.40
2018-07-03T03:51:29.000Z,14.50
2018-07-03T03:53:57.897Z,14.50
2018-07-03T03:56:26.460Z,14.50
2018-07-03T03:58:54.920Z,14.50
2018-07-03T04:01:23.376Z,14.60
2018-07-03T04:03:51.885Z,14.60
2018-07-03T04:06:20.285Z,14.50
2018-07-03T04:08:48.744Z,14.60
2018-07-03T04:11:17.245Z,14.60
2018-07-03T04:13:45.845Z,14.60
2018-07-03T04:16:14.369Z,14.60
2018-07-03T04:18:42.808Z,14.60
2018-07-03T04:21:11.314Z,14.60
2018-07-03T04:23:39.792Z,14.60
2018-07-03T04:26:08.472Z,14.70
2018-07-03T04:28:36.941Z,14.70
2018-07-03T04:31:05.355Z,14.70
2018-07-03T04:33:36.012Z,14.80
2018-07-03T04:36:04.568Z,14.80
2018-07-03T04:38:33.055Z,14.80
2018-07-03T04:41:01.489Z,14.80
2018-07-03T04:43:29.945Z,14.90
2018-07-03T04:45:58.456Z,14.90
2018-07-03T04:48:26.904Z,15.00
2018-07-03T04:50:55.380Z,15.10
2018-07-03T04:53:23.920Z,15.10
2018-07-03T04:55:52.297Z,15.20
2018-07-03T04:58:20.816Z,15.20
2018-07-03T05:00:49.345Z,15.20
2018-07-03T05:03:17.853Z,15.30
2018-07-03T05:05:46.393Z,15.30
2018-07-03T05:08:14.872Z,15.50
2018-07-03T05:10:43.280Z,15.60
2018-07-03T05:13:11.736Z,15.80
2018-07-03T05:15:40.141Z,15.90
2018-07-03T05:18:08.670Z,16.00
2018-07-03T05:20:37.256Z,16.10
2018-07-03T05:23:06.769Z,16.10
2018-07-03T05:25:35.404Z,16.30
2018-07-03T05:28:03.850Z,16.40
2018-07-03T05:30:33.976Z,16.60
2018-07-03T05:33:04.438Z,16.80
2018-07-03T05:35:33.128Z,17.00
2018-07-03T05:38:01.620Z,17.20
2018-07-03T05:40:30.069Z,17.50
2018-07-03T05:42:58.692Z,18.10
2018-07-03T05:45:27.170Z,18.60
2018-07-03T05:47:55.704Z,18.70
2018-07-03T05:50:24.199Z,19.20
2018-07-03T05:52:52.621Z,19.90
2018-07-03T05:55:21.081Z,20.50
2018-07-03T05:57:49.525Z,20.70
2018-07-03T06:00:18.377Z,21.00
2018-07-03T06:02:46.909Z,21.40
2018-07-03T06:05:15.518Z,21.70
2018-07-03T06:07:43.916Z,22.40
2018-07-03T06:10:12.496Z,22.70
2018-07-03T06:12:41.017Z,22.90
2018-07-03T06:15:09.485Z,23.40
2018-07-03T06:17:38.055Z,24.40
2018-07-03T06:20:07.986Z,24.20
2018-07-03T06:22:36.485Z,24.30
2018-07-03T06:25:05.615Z,24.60
2018-07-03T06:27:34.024Z,25.00
2018-07-03T06:30:02.415Z,26.20
2018-07-03T06:32:30.945Z,26.50
2018-07-03T06:34:59.589Z,27.90
2018-07-03T06:37:28.364Z,28.50
2018-07-03T06:39:56.472Z,28.90
2018-07-03T06:42:24.857Z,29.40
2018-07-03T06:44:53.452Z,29.20
2018-07-03T06:47:21.894Z,29.10
2018-07-03T06:49:50.318Z,28.90
2018-07-03T06:52:18.777Z,29.90
2018-07-03T06:54:47.184Z,30.10
2018-07-03T06:57:15.703Z,29.20
2018-07-03T06:59:44.129Z,28.60
2018-07-03T07:02:12.531Z,28.70
2018-07-03T07:04:41.252Z,28.10
2018-07-03T07:07:09.796Z,27.90
2018-07-03T07:09:38.198Z,28.20
2018-07-03T07:12:06.681Z,28.10
2018-07-03T07:14:35.040Z,27.80
2018-07-03T07:17:03.501Z,28.00
2018-07-03T07:19:32.111Z,27.90
2018-07-03T07:22:00.684Z,28.00
2018-07-03T07:24:29.138Z,27.90
2018-07-03T07:26:57.560Z,27.60
2018-07-03T07:29:25.951Z,27.40
2018-07-03T07:31:54.413Z,27.30
2018-07-03T07:34:22.988Z,27.30
2018-07-03T07:36:51.603Z,27.20
2018-07-03T07:39:20.231Z,27.10
2018-07-03T07:41:48.650Z,27.20
2018-07-03T07:44:17.151Z,27.10
2018-07-03T07:46:45.720Z,27.10
2018-07-03T07:49:14.349Z,27.10
2018-07-03T07:51:42.820Z,27.00
2018-07-03T07:54:11.342Z,27.10
2018-07-03T07:56:39.813Z,26.80
2018-07-03T07:59:08.276Z,27.00
2018-07-03T08:01:36.950Z,27.10
2018-07-03T08:04:05.370Z,27.30
2018-07-03T08:06:33.912Z,27.40
2018-07-03T08:09:02.776Z,27.70
2018-07-03T08:11:31.394Z,28.80
2018-07-03T08:13:59.918Z,28.70
2018-07-03T08:16:28.368Z,28.80
2018-07-03T08:18:56.984Z,29.00
2018-07-03T08:21:25.536Z,29.30
2018-07-03T08:23:54.040Z,29.50
2018-07-03T08:26:22.551Z,29.90
2018-07-03T08:28:51.489Z,30.10
2018-07-03T08:31:20.076Z,30.20
2018-07-03T08:33:48.669Z,30.80
2018-07-03T08:36:17.280Z,31.60
2018-07-03T08:38:45.902Z,32.20
2018-07-03T08:41:14.624Z,32.20
2018-07-03T08:43:43.196Z,32.30
2018-07-03T08:46:11.876Z,32.50
2018-07-03T08:48:40.604Z,32.50
2018-07-03T08:51:09.254Z,32.10
2018-07-03T08:53:38.029Z,32.50
2018-07-03T08:56:06.696Z,32.90
2018-07-03T08:58:35.305Z,33.80
2018-07-03T09:01:03.921Z,32.90
2018-07-03T09:03:32.696Z,32.60
2018-07-03T09:06:01.476Z,32.70
2018-07-03T09:08:30.070Z,32.80
2018-07-03T09:10:58.934Z,31.50
2018-07-03T09:13:27.713Z,31.60
2018-07-03T09:15:56.377Z,32.90
2018-07-03T09:18:25.121Z,34.10
2018-07-03T09:20:53.758Z,35.80
2018-07-03T09:23:22.513Z,35.70
2018-07-03T09:25:51.270Z,34.10
2018-07-03T09:28:19.925Z,32.40
2018-07-03T09:30:48.649Z,32.90
2018-07-03T09:33:17.351Z,34.30
2018-07-03T09:35:46.101Z,35.20
2018-07-03T09:38:14.724Z,34.50
2018-07-03T09:40:43.121Z,35.20
2018-07-03T09:43:11.760Z,35.70
2018-07-03T09:45:40.193Z,37.00
2018-07-03T09:48:08.576Z,37.30
2018-07-03T09:50:36.953Z,35.70
2018-07-03T09:53:05.596Z,35.90
2018-07-03T09:55:34.098Z,36.00
2018-07-03T09:58:02.602Z,36.80
2018-07-03T10:00:36.392Z,36.20
2018-07-03T10:03:04.999Z,34.60
2018-07-03T10:05:37.468Z,33.70
2018-07-03T10:08:05.844Z,35.10
2018-07-03T10:10:34.281Z,36.30
2018-07-03T10:13:02.745Z,36.60
2018-07-03T10:15:31.400Z,36.10
2018-07-03T10:18:00.416Z,35.70
2018-07-03T10:20:29.386Z,34.80
2018-07-03T10:22:57.880Z,34.80
2018-07-03T10:25:26.442Z,35.50
2018-07-03T10:27:54.869Z,36.40
2018-07-03T10:30:23.380Z,36.50
2018-07-03T10:32:51.779Z,37.30
2018-07-03T10:35:20.333Z,38.60
2018-07-03T10:37:49.842Z,39.40
2018-07-03T10:40:18.344Z,37.20
2018-07-03T10:42:46.993Z,35.80
2018-07-03T10:47:43.420Z,37.10
2018-07-03T10:50:12.044Z,36.90
2018-07-03T10:52:40.441Z,35.90
2018-07-03T10:55:08.865Z,36.30
2018-07-03T10:57:37.469Z,36.70
2018-07-03T11:00:06.681Z,37.30
2018-07-03T11:02:35.284Z,37.30
2018-07-03T11:05:03.846Z,36.30
2018-07-03T11:07:32.352Z,36.90
2018-07-03T11:10:01.060Z,37.90
2018-07-03T11:12:29.504Z,37.80
2018-07-03T11:14:57.984Z,38.90
2018-07-03T11:17:26.488Z,39.30
2018-07-03T11:19:54.960Z,39.50
2018-07-03T11:22:23.316Z,39.60
2018-07-03T11:24:51.788Z,38.70
2018-07-03T11:27:20.224Z,38.50
2018-07-03T11:29:48.617Z,38.20
2018-07-03T11:32:17.020Z,37.50
2018-07-03T11:34:45.553Z,37.30
2018-07-03T11:37:14.029Z,37.30
2018-07-03T11:39:42.282Z,38.30
2018-07-03T11:42:10.596Z,38.90
2018-07-03T11:44:38.892Z,39.30
2018-07-03T11:47:07.460Z,38.90
2018-07-03T11:49:35.869Z,38.60
2018-07-03T11:52:04.857Z,38.80
2018-07-03T11:54:33.285Z,37.60
2018-07-03T11:57:01.868Z,36.80
2018-07-03T11:59:30.380Z,37.20
2018-07-03T12:01:58.928Z,37.60
2018-07-03T12:04:27.439Z,38.30
2018-07-03T12:06:56.672Z,38.20
2018-07-03T12:09:25.138Z,38.40
2018-07-03T12:11:53.617Z,38.60
2018-07-03T12:16:50.173Z,37.10
2018-07-03T12:21:46.520Z,38.30
2018-07-03T12:24:14.964Z,37.80
2018-07-03T12:26:43.518Z,37.70
2018-07-03T12:29:12.042Z,37.50
2018-07-03T12:31:40.498Z,37.20
2018-07-03T12:34:08.897Z,37.20
2018-07-03T12:36:37.272Z,37.90
2018-07-03T12:39:08.417Z,37.40
2018-07-03T12:41:36.856Z,37.20
2018-07-03T12:44:05.669Z,36.80
2018-07-03T12:46:34.075Z,36.80
2018-07-03T12:49:02.592Z,36.80
2018-07-03T12:51:31.389Z,36.60
2018-07-03T12:53:59.793Z,37.50
2018-07-03T12:56:28.312Z,36.70
2018-07-03T12:58:57.250Z,36.70
2018-07-03T13:01:25.858Z,36.50
2018-07-03T13:03:54.528Z,36.70
2018-07-03T13:06:23.016Z,37.00
2018-07-03T13:08:51.490Z,36.20
2018-07-03T13:11:19.874Z,36.20
2018-07-03T13:13:48.247Z,36.40
2018-07-03T13:18:44.853Z,36.80
2018-07-03T13:21:13.283Z,36.30
2018-07-03T13:23:41.786Z,36.70
2018-07-03T13:26:10.260Z,36.90
2018-07-03T13:28:38.891Z,36.60
2018-07-03T13:31:07.436Z,35.10
2018-07-03T13:33:35.840Z,36.00
2018-07-03T13:36:04.340Z,36.50
2018-07-03T13:38:32.764Z,37.50
2018-07-03T13:41:01.331Z,37.00
2018-07-03T13:43:29.740Z,36.40
2018-07-03T13:45:58.208Z,35.30
2018-07-03T13:48:26.714Z,35.50
2018-07-03T13:50:55.336Z,36.00
2018-07-03T13:53:23.969Z,35.70
2018-07-03T13:55:52.473Z,37.10
2018-07-03T13:58:21.469Z,36.70
2018-07-03T14:00:49.977Z,36.70
2018-07-03T14:03:18.420Z,37.40
2018-07-03T14:05:46.815Z,37.20
2018-07-03T14:08:15.084Z,37.00
2018-07-03T14:10:43.569Z,37.50
2018-07-03T14:13:11.923Z,37.90
2018-07-03T14:15:40.351Z,38.30
2018-07-03T14:18:09.628Z,38.20
2018-07-03T14:20:38.075Z,36.80
2018-07-03T14:23:08.033Z,36.20
2018-07-03T14:25:36.544Z,36.50
2018-07-03T14:28:04.993Z,36.60
2018-07-03T14:30:33.516Z,36.40
2018-07-03T14:33:01.886Z,36.40
2018-07-03T14:35:30.319Z,36.20
2018-07-03T14:37:59.636Z,34.70
2018-07-03T14:40:28.048Z,36.00
2018-07-03T14:42:56.508Z,35.90
2018-07-03T14:45:24.882Z,35.50
2018-07-03T14:47:53.329Z,36.30
2018-07-03T14:50:21.764Z,36.20
2018-07-03T14:52:50.600Z,36.60
2018-07-03T14:55:19.020Z,37.10
2018-07-03T14:57:47.396Z,36.20
2018-07-03T15:00:15.724Z,36.60
2018-07-03T15:02:44.020Z,35.60
2018-07-03T15:05:12.321Z,35.70
2018-07-03T15:07:40.723Z,36.20
2018-07-03T15:10:09.240Z,34.70
2018-07-03T15:12:37.620Z,35.00
2018-07-03T15:15:06.154Z,35.20
2018-07-03T15:17:34.654Z,36.20
2018-07-03T15:20:03.789Z,36.50
2018-07-03T15:22:32.180Z,36.70
2018-07-03T15:25:00.996Z,36.30
2018-07-03T15:27:29.492Z,37.00
2018-07-03T15:30:00.376Z,36.90
2018-07-03T15:32:28.922Z,36.50
2018-07-03T15:34:57.785Z,36.30
2018-07-03T15:37:26.464Z,35.70
2018-07-03T15:39:56.236Z,35.60
2018-07-03T15:42:25.075Z,36.10
2018-07-03T15:45:02.793Z,35.70
2018-07-03T15:47:31.495Z,35.20
2018-07-03T15:49:59.986Z,35.30
2018-07-03T15:52:28.568Z,36.40
2018-07-03T15:54:57.052Z,36.00
2018-07-03T15:57:25.563Z,35.70
2018-07-03T15:59:54.107Z,35.60
2018-07-03T16:02:22.591Z,35.50
2018-07-03T16:07:13.868Z,36.20
2018-07-03T16:12:10.314Z,35.70
2018-07-03T16:14:38.956Z,36.40
2018-07-03T16:17:07.609Z,35.60
2018-07-03T16:19:41.608Z,35.70
2018-07-03T16:22:10.115Z,35.70
2018-07-03T16:24:38.564Z,35.00
2018-07-03T16:27:07.185Z,35.10
2018-07-03T16:29:35.689Z,35.20
2018-07-03T16:32:04.704Z,35.50
2018-07-03T16:34:33.124Z,36.00
2018-07-03T16:37:02.815Z,35.90
2018-07-03T16:39:31.313Z,35.50
2018-07-03T16:41:59.988Z,35.00
2018-07-03T16:44:28.548Z,34.80
2018-07-03T16:46:57.120Z,34.80
2018-07-03T16:49:25.470Z,35.20
2018-07-03T16:51:54.005Z,34.90
2018-07-03T16:54:22.492Z,34.30
2018-07-03T16:56:51.067Z,33.70
2018-07-03T16:59:19.949Z,34.50
2018-07-03T17:01:48.584Z,34.50
2018-07-03T17:04:17.016Z,34.50
2018-07-03T17:06:45.946Z,34.90
2018-07-03T17:09:14.521Z,34.90
2018-07-03T17:11:43.008Z,34.80
2018-07-03T17:14:11.629Z,34.00
2018-07-03T17:16:41.413Z,33.70
2018-07-03T17:19:15.272Z,33.60
2018-07-03T17:21:43.756Z,34.20
2018-07-03T17:24:16.224Z,34.20
2018-07-03T17:26:44.636Z,34.50
2018-07-03T17:29:13.152Z,34.40
2018-07-03T17:31:41.558Z,34.20
2018-07-03T17:34:10.185Z,33.70
2018-07-03T17:36:38.778Z,33.20
2018-07-03T17:39:15.500Z,33.20
2018-07-03T17:41:55.500Z,33.50
2018-07-03T17:44:32.295Z,33.40
2018-07-03T17:47:01.044Z,33.30
2018-07-03T17:49:29.508Z,32.60
2018-07-03T17:51:57.964Z,32.50
2018-07-03T17:54:26.664Z,32.20
2018-07-03T17:56:55.310Z,32.20
2018-07-03T17:59:23.751Z,32.10
2018-07-03T18:01:52.640Z,32.10
2018-07-03T18:04:21.156Z,32.30
2018-07-03T18:06:49.597Z,31.80
2018-07-03T18:09:18.062Z,31.70
2018-07-03T18:11:46.592Z,31.60
2018-07-03T18:14:15.116Z,31.20
2018-07-03T18:16:43.550Z,31.30
2018-07-03T18:19:17.636Z,31.20
2018-07-03T18:21:46.274Z,30.90
2018-07-03T18:24:14.773Z,30.80
2018-07-03T18:26:43.213Z,30.70
2018-07-03T18:29:11.777Z,30.40
2018-07-03T18:31:40.217Z,30.40
2018-07-03T18:34:08.780Z,30.20
2018-07-03T18:36:37.267Z,29.80
2018-07-03T18:39:08.412Z,29.80
2018-07-03T18:41:36.844Z,29.80
2018-07-03T18:44:06.394Z,29.70
2018-07-03T18:46:34.761Z,29.70
2018-07-03T18:49:23.661Z,29.50
2018-07-03T18:51:52.108Z,29.10
2018-07-03T18:54:20.539Z,29.40
2018-07-03T18:56:48.878Z,29.50
2018-07-03T18:59:17.284Z,29.40
2018-07-03T19:01:45.800Z,29.40
2018-07-03T19:04:14.212Z,29.30
2018-07-03T19:06:42.621Z,29.20
2018-07-03T19:09:11.306Z,29.20
2018-07-03T19:11:39.917Z,28.50
2018-07-03T19:14:08.320Z,28.10
2018-07-03T19:16:38.972Z,28.20
2018-07-03T19:19:07.357Z,28.20
2018-07-03T19:21:35.932Z,28.10
2018-07-03T19:26:32.563Z,27.70
2018-07-03T19:29:01.116Z,27.50
2018-07-03T19:31:29.572Z,27.20
2018-07-03T19:33:58.077Z,27.10
2018-07-03T19:36:26.719Z,27.10
2018-07-03T19:38:55.201Z,26.70
2018-07-03T19:41:23.636Z,26.60
2018-07-03T19:44:04.620Z,26.60
2018-07-03T19:46:33.244Z,26.40
2018-07-03T19:49:01.676Z,26.10
2018-07-03T19:51:30.150Z,26.10
2018-07-03T19:53:58.704Z,26.00
2018-07-03T19:56:29.476Z,25.60
2018-07-03T19:58:57.852Z,25.40
2018-07-03T20:01:26.400Z,25.20
2018-07-03T20:03:54.910Z,25.30
2018-07-03T20:06:23.407Z,25.20
2018-07-03T20:08:52.026Z,25.10
2018-07-03T20:11:20.433Z,25.00
2018-07-03T20:13:48.998Z,24.80
2018-07-03T20:16:17.390Z,24.70
2018-07-03T20:18:45.809Z,24.50
2018-07-03T20:21:14.257Z,24.30
2018-07-03T20:23:42.660Z,24.20
2018-07-03T20:26:11.318Z,24.00
2018-07-03T20:28:39.813Z,23.90
2018-07-03T20:31:08.652Z,23.70
2018-07-03T20:33:37.141Z,23.60
2018-07-03T20:36:05.556Z,23.50
2018-07-03T20:38:34.032Z,23.30
2018-07-03T20:41:09.539Z,23.20
2018-07-03T20:43:40.224Z,23.10
2018-07-03T20:46:09.653Z,23.00
2018-07-03T20:48:38.145Z,22.90
2018-07-03T20:51:06.772Z,22.80
2018-07-03T20:53:35.144Z,22.60
2018-07-03T20:56:03.748Z,22.50
2018-07-03T20:58:32.187Z,22.40
2018-07-03T21:01:00.665Z,22.30
2018-07-03T21:03:29.336Z,22.20
2018-07-03T21:05:57.807Z,22.10
2018-07-03T21:08:26.384Z,22.00
2018-07-03T21:10:54.884Z,22.00
2018-07-03T21:13:23.419Z,21.90
2018-07-03T21:15:51.849Z,21.80
2018-07-03T21:18:20.325Z,21.70
2018-07-03T21:20:48.727Z,21.60
2018-07-03T21:23:17.100Z,21.40
2018-07-03T21:25:45.616Z,21.40
2018-07-03T21:28:14.267Z,21.30
2018-07-03T21:30:42.640Z,21.20
2018-07-03T21:33:11.046Z,21.10
2018-07-03T21:35:39.567Z,21.00
2018-07-03T21:38:08.003Z,20.90
2018-07-03T21:40:36.368Z,20.90
2018-07-03T21:43:04.728Z,20.80
2018-07-03T21:45:33.228Z,20.70
2018-07-03T21:48:01.694Z,20.60
2018-07-03T21:50:30.232Z,20.50
2018-07-03T21:52:58.665Z,20.50
2018-07-03T21:55:27.162Z,20.40
2018-07-03T21:57:55.564Z,20.30
2018-07-03T22:00:35.893Z,20.20
2018-07-03T22:03:05.737Z,20.10
2018-07-03T22:05:34.164Z,20.10
2018-07-03T22:08:02.589Z,20.00
2018-07-03T22:10:31.045Z,19.90
2018-07-03T22:12:59.658Z,19.80
2018-07-03T22:15:28.093Z,19.70
2018-07-03T22:17:56.764Z,19.70
2018-07-03T22:20:25.152Z,19.60
2018-07-03T22:22:53.533Z,19.50
2018-07-03T22:25:21.986Z,19.40
2018-07-03T22:27:50.541Z,19.30
2018-07-03T22:30:18.964Z,19.30
2018-07-03T22:32:47.535Z,19.20
2018-07-03T22:35:16.352Z,19.10
2018-07-03T22:37:44.896Z,19.00
2018-07-03T22:40:13.357Z,19.00
2018-07-03T22:42:41.856Z,18.90
2018-07-03T22:45:10.332Z,18.80
2018-07-03T22:47:38.752Z,18.80
2018-07-03T22:50:07.216Z,18.70
2018-07-03T22:52:35.610Z,18.60
2018-07-03T22:55:04.184Z,18.60
2018-07-03T22:57:32.598Z,18.50
2018-07-03T23:00:01.033Z,18.40
2018-07-03T23:02:29.545Z,18.40
2018-07-03T23:04:58.068Z,18.30
2018-07-03T23:07:26.596Z,18.20
2018-07-03T23:09:55.083Z,18.10
2018-07-03T23:12:23.740Z,18.10
2018-07-03T23:14:55.458Z,18.00
2018-07-03T23:17:23.889Z,17.90
2018-07-03T23:19:52.504Z,17.80
2018-07-03T23:22:21.056Z,17.80
2018-07-03T23:24:49.508Z,17.70
2018-07-03T23:27:18.104Z,17.70
2018-07-03T23:29:46.580Z,17.60
2018-07-03T23:32:15.097Z,17.50
2018-07-03T23:34:43.524Z,17.50
2018-07-03T23:37:11.933Z,17.40
2018-07-03T23:39:40.451Z,17.40
2018-07-03T23:42:08.857Z,17.30
2018-07-03T23:44:37.342Z,17.30
2018-07-03T23:47:16.933Z,17.20
2018-07-03T23:49:56.457Z,17.20
2018-07-03T23:52:35.976Z,17.10
2018-07-03T23:55:19.296Z,17.00
2018-07-03T23:57:58.756Z,17.00
